FKKDDNCA

Guest
Details From FKKD - Douala
To DNCA - CALABAR
Flight Number -
Tags generated
Created
Modified
Stats Distance 101 nm / 187 km
Max Altitude 3,700 ft / 1,128 m
Waypoints 3
Social Downloads 0
Likes 0
Share VATSIM

Download

Looking for another format? Having issues loading an existing format? Contact us
Advertisement - Login to hide

Notes

Basic altitude profile: - Ascent Rate: 2500ft/min - Ascent Speed: 250kts - Cruise Altitude: 35000ft - Cruise Speed: 420kts - Descent Rate: 1500ft/min - Descent Speed: 250kts Options: - Use NATs: yes - Use PACOTS: yes - Use low airways: yes - Use high airways: yes

Route

FKKD ILBAS DNCA

ID Type Via Altitude Latitude Longitude Leg Dist Tot Dist Heading (true) Name
O FKKD APT - 0 ft / 0 m 4.01421˚ 9.71654˚ - 0 nm - Douala
ILBAS FIX - 3,700 ft / 1,128 m 4.86000˚ 8.61667˚ 83 nm 83 nm 308° / 308° -
O DNCA APT - 0 ft / 0 m 4.97605˚ 8.34730˚ 17 nm 100 nm 293° / 293° CALABAR

Altitude Profile

Advertisement - Login to hide

FKKD

Details ICAO FKKD (DLA)
Name Douala
Region Cameroon
Timezone Africa/Douala (UTC+1.0)
Stats Elevation 33 ft / 10 m (AMSL)
Location 4.014208° 9.716538°
Runways 2
Magnetic Variation 1.106° W

METAR

FKKD 110400Z 00000KT 2500 BR SCT016 FEW020CB 23/23 Q1010 NOSIG

Decode

TAF

TAF FKKD 102300Z 1100/1206 VRB03KT 2000 HZ SCT013 FEW016CB BECMG 1103/1105 0800 FG BECMG 1106/1108 2500 HZ BKN016 FEW020CB

Decode

Departure Runways

ID Width Length Bearing (true) Bearing (mag) Surface Threshold Offset Overrun Length
03 147 ft / 45 m 8,210 ft / 2,502 m 27.00° 28.11° Asphalt 350 ft / 107 m 0 ft / 0 m
12 148 ft / 45 m 9,363 ft / 2,854 m 116.94° 118.05° Asphalt 0 ft / 0 m 164 ft / 50 m
21 147 ft / 45 m 8,210 ft / 2,502 m 207.00° 208.11° Asphalt 350 ft / 107 m 0 ft / 0 m
30 148 ft / 45 m 9,363 ft / 2,854 m 296.94° 298.05° Asphalt 0 ft / 0 m 164 ft / 50 m

DNCA

Details ICAO DNCA (CBQ)
Name CALABAR
Region Nigeria
Timezone Africa/Lagos (UTC+1.0)
Stats Elevation 210 ft / 64 m (AMSL)
Location 4.976046° 8.347299°
Runways 1
Magnetic Variation 1.272° W

METAR

Not found

TAF

TAF DNCA 101530Z 1018/1124 35004KT 1500 HZ NSC BECMG 1020/1022 3000

Decode

Destination Runways

ID Width Length Bearing (true) Bearing (mag) Surface Threshold Offset Overrun Length
03 148 ft / 45 m 8,076 ft / 2,462 m 26.78° 28.05° Asphalt 0 ft / 0 m 200 ft / 61 m
21 148 ft / 45 m 8,076 ft / 2,462 m 206.78° 208.05° Asphalt 0 ft / 0 m 200 ft / 61 m

Approach Navaids

Runway Type Ident Frequency Range Bearing (true) Bearing (mag) Slope Elevation
21 Localiser ICL 109.10 MHz 18 nm / 33 km 208.93° 210.20° - 200 ft / 61 m (AMSL)